createdAt,value
2023-03-06T00:02:01.553Z,2.32
2023-03-06T00:04:30.955Z,2.34
2023-03-06T00:06:57.757Z,2.27
2023-03-06T00:09:24.453Z,2.26
2023-03-06T00:11:51.024Z,2.25
2023-03-06T00:14:17.618Z,2.32
2023-03-06T00:16:44.237Z,2.33
2023-03-06T00:19:12.805Z,2.27
2023-03-06T00:21:45.390Z,2.24
2023-03-06T00:24:16.101Z,2.20
2023-03-06T00:26:43.397Z,2.17
2023-03-06T00:29:10.075Z,2.17
2023-03-06T00:31:37.105Z,2.14
2023-03-06T00:34:06.656Z,2.20
2023-03-06T00:36:36.006Z,2.27
2023-03-06T00:39:02.639Z,2.16
2023-03-06T00:41:29.314Z,2.18
2023-03-06T00:44:01.024Z,2.11
2023-03-06T00:46:27.656Z,2.14
2023-03-06T00:48:54.248Z,2.15
2023-03-06T00:51:23.331Z,2.10
2023-03-06T00:53:52.516Z,2.08
2023-03-06T00:56:20.066Z,2.10
2023-03-06T00:58:46.843Z,2.11
2023-03-06T01:01:13.840Z,2.12
2023-03-06T01:03:42.432Z,2.07
2023-03-06T01:06:09.205Z,2.06
2023-03-06T01:08:35.938Z,2.18
2023-03-06T01:11:02.638Z,2.09
2023-03-06T01:13:29.389Z,2.14
2023-03-06T01:16:07.432Z,2.11
2023-03-06T01:18:34.335Z,2.06
2023-03-06T01:21:00.997Z,2.01
2023-03-06T01:23:27.704Z,1.99
2023-03-06T01:25:56.987Z,1.97
2023-03-06T01:28:24.055Z,1.99
2023-03-06T01:30:53.461Z,2.01
2023-03-06T01:33:20.216Z,1.97
2023-03-06T01:35:46.967Z,1.97
2023-03-06T01:38:14.378Z,1.95
2023-03-06T01:40:41.070Z,1.97
2023-03-06T01:43:26.670Z,2.03
2023-03-06T01:46:12.065Z,1.97
2023-03-06T01:48:39.702Z,1.98
2023-03-06T01:51:06.505Z,1.96
2023-03-06T01:53:33.424Z,1.95
2023-03-06T01:56:00.145Z,1.97
2023-03-06T01:58:26.945Z,1.95
2023-03-06T02:00:53.640Z,1.91
2023-03-06T02:03:26.762Z,1.97
2023-03-06T02:05:57.396Z,1.91
2023-03-06T02:08:24.992Z,1.89
2023-03-06T02:11:00.922Z,1.93
2023-03-06T02:13:27.650Z,1.88
2023-03-06T02:15:54.420Z,1.83
2023-03-06T02:18:21.123Z,1.81
2023-03-06T02:20:54.220Z,1.81
2023-03-06T02:23:32.221Z,1.84
2023-03-06T02:26:00.998Z,1.82
2023-03-06T02:28:27.881Z,1.84
2023-03-06T02:30:56.468Z,1.84
2023-03-06T02:33:27.366Z,1.86
2023-03-06T02:36:02.911Z,1.90
2023-03-06T02:38:42.262Z,1.89
2023-03-06T02:41:10.726Z,1.85
2023-03-06T02:43:43.490Z,1.82
2023-03-06T02:46:12.735Z,1.84
2023-03-06T02:48:39.515Z,1.82
2023-03-06T02:51:06.779Z,1.80
2023-03-06T02:53:36.451Z,1.87
2023-03-06T02:56:03.153Z,1.89
2023-03-06T02:58:29.880Z,1.88
2023-03-06T03:00:56.501Z,1.85
2023-03-06T03:03:23.292Z,1.81
2023-03-06T03:05:50.113Z,1.86
2023-03-06T03:08:16.883Z,1.88
2023-03-06T03:10:43.670Z,1.86
2023-03-06T03:13:12.649Z,1.86
2023-03-06T03:15:39.354Z,1.85
2023-03-06T03:18:06.020Z,1.93
2023-03-06T03:20:33.060Z,1.85
2023-03-06T03:23:02.932Z,1.80
2023-03-06T03:25:32.363Z,1.82
2023-03-06T03:28:04.553Z,1.83
2023-03-06T03:30:33.827Z,1.81
2023-03-06T03:33:03.587Z,1.91
2023-03-06T03:35:33.105Z,1.86
2023-03-06T03:37:59.987Z,1.82
2023-03-06T03:40:28.959Z,1.75
2023-03-06T03:42:55.528Z,1.68
2023-03-06T03:45:27.741Z,1.59
2023-03-06T03:47:57.047Z,1.49
2023-03-06T03:50:25.468Z,1.45
2023-03-06T03:52:54.446Z,1.38
2023-03-06T03:55:21.210Z,1.32
2023-03-06T03:57:47.907Z,1.26
2023-03-06T04:00:18.410Z,1.17
2023-03-06T04:02:45.271Z,1.10
2023-03-06T04:05:14.916Z,0.99
2023-03-06T04:07:42.731Z,0.90
2023-03-06T04:10:10.792Z,0.83
2023-03-06T04:12:37.833Z,0.72
2023-03-06T04:15:10.351Z,0.75
2023-03-06T04:17:42.172Z,0.64
2023-03-06T04:20:14.516Z,0.53
2023-03-06T04:22:44.338Z,0.45
2023-03-06T04:25:15.524Z,0.36
2023-03-06T04:27:42.148Z,0.32
2023-03-06T04:30:09.397Z,0.27
2023-03-06T04:32:36.126Z,0.31
2023-03-06T04:35:05.458Z,0.21
2023-03-06T04:37:32.192Z,0.15
2023-03-06T04:39:58.872Z,0.11
2023-03-06T04:42:25.535Z,0.07
2023-03-06T04:44:52.284Z,0.07
2023-03-06T04:47:19.419Z,0.13
2023-03-06T04:49:46.537Z,0.13
2023-03-06T04:52:16.064Z,0.11
2023-03-06T04:54:46.855Z,0.07
2023-03-06T04:57:14.281Z,0.07
2023-03-06T04:59:40.899Z,0.07
2023-03-06T05:02:07.740Z,0.00
2023-03-06T05:04:38.699Z,-0.02
2023-03-06T05:07:05.456Z,0.04
2023-03-06T05:09:38.252Z,0.04
2023-03-06T05:12:08.858Z,0.02
2023-03-06T05:14:38.184Z,-0.01
2023-03-06T05:17:04.850Z,0.00
2023-03-06T05:19:31.398Z,0.05
2023-03-06T05:21:58.091Z,0.05
2023-03-06T05:24:24.774Z,0.08
2023-03-06T05:26:51.408Z,0.13
2023-03-06T05:29:21.326Z,0.14
2023-03-06T05:31:47.995Z,0.20
2023-03-06T05:34:16.120Z,0.33
2023-03-06T05:36:43.327Z,0.42
2023-03-06T05:39:10.069Z,0.47
2023-03-06T05:41:36.671Z,0.52
2023-03-06T05:44:03.333Z,0.54
2023-03-06T05:46:30.008Z,0.63
2023-03-06T05:48:57.918Z,0.59
2023-03-06T05:51:27.840Z,0.54
2023-03-06T05:53:54.448Z,0.55
2023-03-06T05:56:23.438Z,0.57
2023-03-06T05:58:52.563Z,0.65
2023-03-06T06:01:20.464Z,0.75
2023-03-06T06:03:47.669Z,0.76
2023-03-06T06:06:15.726Z,0.76
2023-03-06T06:08:45.042Z,0.79
2023-03-06T06:11:13.289Z,0.90
2023-03-06T06:13:40.666Z,0.91
2023-03-06T06:16:19.477Z,0.90
2023-03-06T06:18:46.510Z,1.06
2023-03-06T06:21:15.942Z,1.11
2023-03-06T06:23:42.647Z,1.14
2023-03-06T06:26:11.691Z,1.26
2023-03-06T06:28:38.345Z,1.38
2023-03-06T06:31:12.346Z,1.38
2023-03-06T06:33:41.805Z,1.46
2023-03-06T06:36:21.693Z,1.59
2023-03-06T06:38:49.665Z,1.65
2023-03-06T06:44:08.444Z,1.86
2023-03-06T06:47:20.913Z,1.96
2023-03-06T06:49:25.904Z,2.04
2023-03-06T06:51:52.622Z,2.12
2023-03-06T06:54:25.173Z,2.14
2023-03-06T06:56:52.177Z,2.20
2023-03-06T06:59:22.334Z,2.29
2023-03-06T07:01:51.636Z,2.28
2023-03-06T07:04:21.322Z,2.32
2023-03-06T07:06:50.568Z,2.35
2023-03-06T07:09:20.188Z,2.46
2023-03-06T07:11:46.823Z,2.51
2023-03-06T07:14:13.837Z,2.53
2023-03-06T07:16:42.237Z,2.59
2023-03-06T07:19:10.955Z,2.60
2023-03-06T07:21:37.671Z,2.68
2023-03-06T07:24:05.982Z,2.69
2023-03-06T07:26:34.649Z,2.74
2023-03-06T07:29:03.830Z,2.83
2023-03-06T07:31:32.320Z,2.91
2023-03-06T07:33:59.056Z,2.97
2023-03-06T07:36:28.083Z,3.03
2023-03-06T07:38:57.598Z,3.09
2023-03-06T07:41:24.259Z,3.16
2023-03-06T07:43:53.346Z,3.26
2023-03-06T07:46:20.036Z,3.31
2023-03-06T07:48:46.658Z,3.35
2023-03-06T07:51:19.085Z,3.44
2023-03-06T07:53:46.668Z,3.44
2023-03-06T07:56:13.725Z,3.52
2023-03-06T07:58:43.382Z,3.59
2023-03-06T08:01:18.089Z,3.64
2023-03-06T08:03:44.831Z,3.74
2023-03-06T08:06:32.334Z,3.87
2023-03-06T08:08:59.807Z,3.89
2023-03-06T08:11:32.412Z,3.99
2023-03-06T08:13:59.548Z,4.21
2023-03-06T08:16:29.647Z,4.40
2023-03-06T08:18:59.707Z,4.61
2023-03-06T08:21:29.383Z,4.85
2023-03-06T08:23:56.314Z,4.96
2023-03-06T08:26:30.980Z,5.06
2023-03-06T08:28:59.823Z,5.11
2023-03-06T08:31:29.532Z,5.20
2023-03-06T08:33:59.896Z,5.32
2023-03-06T08:36:35.252Z,5.29
2023-03-06T08:39:05.183Z,5.34
2023-03-06T08:41:33.475Z,5.38
2023-03-06T08:44:00.337Z,5.46
2023-03-06T08:46:28.870Z,5.59
2023-03-06T08:48:56.727Z,5.51
2023-03-06T08:51:28.019Z,5.49
2023-03-06T08:53:57.329Z,5.57
2023-03-06T08:56:28.408Z,5.65
2023-03-06T08:59:00.134Z,5.62
2023-03-06T09:01:30.982Z,5.57
2023-03-06T09:03:59.445Z,5.54
2023-03-06T09:06:29.812Z,5.72
2023-03-06T09:09:01.566Z,5.88
2023-03-06T09:11:28.392Z,6.04
2023-03-06T09:13:55.440Z,6.04
2023-03-06T09:16:22.113Z,6.29
2023-03-06T09:18:50.920Z,6.22
2023-03-06T09:21:17.406Z,6.03
2023-03-06T09:23:46.271Z,5.94
2023-03-06T09:26:13.079Z,5.92
2023-03-06T09:28:42.842Z,6.26
2023-03-06T09:31:11.644Z,6.76
2023-03-06T09:33:38.583Z,6.62
2023-03-06T09:36:16.234Z,6.56
2023-03-06T09:38:42.813Z,6.45
2023-03-06T09:41:11.885Z,6.50
2023-03-06T09:43:40.680Z,6.46
2023-03-06T09:46:16.043Z,6.44
2023-03-06T09:48:45.748Z,6.59
2023-03-06T09:51:23.748Z,6.83
2023-03-06T09:54:10.183Z,6.92
2023-03-06T09:56:37.266Z,7.05
2023-03-06T09:59:25.668Z,7.13
2023-03-06T10:02:10.768Z,7.15
2023-03-06T10:04:59.354Z,7.11
2023-03-06T10:07:35.266Z,7.09
2023-03-06T10:10:06.514Z,7.21
2023-03-06T10:12:41.428Z,7.43
2023-03-06T10:15:10.700Z,7.21
2023-03-06T10:17:46.918Z,7.09
2023-03-06T10:20:27.934Z,7.02
2023-03-06T10:23:01.267Z,7.07
2023-03-06T10:25:37.515Z,7.21
2023-03-06T10:28:18.226Z,7.35
2023-03-06T10:30:50.982Z,7.38
2023-03-06T10:33:47.209Z,7.37
2023-03-06T10:36:25.991Z,7.36
2023-03-06T10:38:56.091Z,7.51
2023-03-06T10:41:28.301Z,7.47
2023-03-06T10:44:00.986Z,7.66
2023-03-06T10:46:31.696Z,7.56
2023-03-06T10:49:01.783Z,7.47
2023-03-06T10:51:33.832Z,7.56
2023-03-06T10:54:06.113Z,7.56
2023-03-06T10:56:40.871Z,7.42
2023-03-06T10:59:28.234Z,7.46
2023-03-06T11:02:08.853Z,7.47
2023-03-06T11:04:37.848Z,7.50
2023-03-06T11:07:05.755Z,7.51
2023-03-06T11:09:33.630Z,7.52
2023-03-06T11:12:18.820Z,7.48
2023-03-06T11:14:45.624Z,7.48
2023-03-06T11:17:32.358Z,7.71
2023-03-06T11:20:18.914Z,7.69
2023-03-06T11:22:51.076Z,7.72
2023-03-06T11:25:31.805Z,7.80
2023-03-06T11:28:23.916Z,8.08
2023-03-06T11:30:56.158Z,8.14
2023-03-06T11:33:28.776Z,8.05
2023-03-06T11:36:03.427Z,8.01
2023-03-06T11:38:59.246Z,8.07
2023-03-06T11:41:25.839Z,8.11
2023-03-06T11:43:57.711Z,8.05
2023-03-06T11:46:45.934Z,8.25
2023-03-06T11:49:32.323Z,8.54
2023-03-06T11:52:13.628Z,8.52
2023-03-06T11:54:41.921Z,8.40
2023-03-06T11:57:18.253Z,8.47
2023-03-06T11:59:50.914Z,8.65
2023-03-06T12:02:17.446Z,8.07
2023-03-06T12:04:46.804Z,8.27
2023-03-06T12:07:19.788Z,8.67
2023-03-06T12:09:56.388Z,8.37
2023-03-06T12:12:49.611Z,8.40
2023-03-06T12:15:42.577Z,8.40
2023-03-06T12:18:28.950Z,8.61
2023-03-06T12:21:15.728Z,8.31
2023-03-06T12:23:42.292Z,8.27
2023-03-06T12:26:21.229Z,8.14
2023-03-06T12:28:52.698Z,8.03
2023-03-06T12:31:52.421Z,7.89
2023-03-06T12:34:39.596Z,7.71
2023-03-06T12:37:23.097Z,7.72
2023-03-06T12:40:17.689Z,8.18
2023-03-06T12:42:48.591Z,8.13
2023-03-06T12:45:28.325Z,8.08
2023-03-06T12:47:58.768Z,8.16
2023-03-06T12:50:25.278Z,8.15
2023-03-06T12:52:56.500Z,8.28
2023-03-06T12:55:25.909Z,8.32
2023-03-06T12:57:53.098Z,8.28
2023-03-06T13:00:38.189Z,8.20
2023-03-06T13:03:07.682Z,8.39
2023-03-06T13:05:48.447Z,8.21
2023-03-06T13:08:21.000Z,8.54
2023-03-06T13:11:20.228Z,8.56
2023-03-06T13:13:50.505Z,8.68
2023-03-06T13:16:42.025Z,8.59
2023-03-06T13:19:23.228Z,8.56
2023-03-06T13:21:56.689Z,8.42
2023-03-06T13:24:24.132Z,8.53
2023-03-06T13:26:55.202Z,8.52
2023-03-06T13:29:36.851Z,8.49
2023-03-06T13:32:03.569Z,8.43
2023-03-06T13:34:32.991Z,8.49
2023-03-06T13:37:24.452Z,8.59
2023-03-06T13:39:57.329Z,8.81
2023-03-06T13:42:29.643Z,8.89
2023-03-06T13:44:57.605Z,8.68
2023-03-06T13:47:39.171Z,8.54
2023-03-06T13:50:31.032Z,8.46
2023-03-06T13:53:06.340Z,8.45
2023-03-06T13:55:35.988Z,8.69
2023-03-06T13:58:09.261Z,8.94
2023-03-06T14:00:55.795Z,8.77
2023-03-06T14:03:41.350Z,8.89
2023-03-06T14:06:27.949Z,8.79
2023-03-06T14:08:57.268Z,8.82
2023-03-06T14:11:35.092Z,8.81
2023-03-06T14:14:04.112Z,8.98
2023-03-06T14:16:49.859Z,8.37
2023-03-06T14:19:17.529Z,8.04
2023-03-06T14:21:49.258Z,8.16
2023-03-06T14:24:17.482Z,8.59
2023-03-06T14:26:56.172Z,8.61
2023-03-06T14:29:26.487Z,7.98
2023-03-06T14:31:57.388Z,7.77
2023-03-06T14:34:29.392Z,7.71
2023-03-06T14:36:58.354Z,7.69
2023-03-06T14:39:39.180Z,8.06
2023-03-06T14:42:19.511Z,7.92
2023-03-06T14:44:58.207Z,8.03
2023-03-06T14:47:29.015Z,7.79
2023-03-06T14:50:16.888Z,7.77
2023-03-06T14:52:43.491Z,8.42
2023-03-06T14:55:20.884Z,8.57
2023-03-06T14:57:52.997Z,8.50
2023-03-06T15:00:31.419Z,8.73
2023-03-06T15:03:00.077Z,9.43
2023-03-06T15:05:31.468Z,8.97
2023-03-06T15:08:09.177Z,9.42
2023-03-06T15:10:42.291Z,9.56
2023-03-06T15:13:22.393Z,9.67
2023-03-06T15:15:59.926Z,9.51
2023-03-06T15:18:33.665Z,9.79
2023-03-06T15:21:19.976Z,9.55
2023-03-06T15:23:51.026Z,9.48
2023-03-06T15:26:29.283Z,9.58
2023-03-06T15:29:08.301Z,9.43
2023-03-06T15:31:41.065Z,9.30
2023-03-06T15:34:07.863Z,9.15
2023-03-06T15:36:35.391Z,7.98
2023-03-06T15:39:06.056Z,7.42
2023-03-06T15:41:42.116Z,7.23
2023-03-06T15:44:11.742Z,7.23
2023-03-06T15:46:48.466Z,7.21
2023-03-06T15:49:17.069Z,6.86
2023-03-06T15:51:45.825Z,6.55
2023-03-06T15:54:15.188Z,6.29
2023-03-06T15:56:45.792Z,6.04
2023-03-06T15:59:26.346Z,5.69
2023-03-06T16:01:53.592Z,5.45
2023-03-06T16:04:20.265Z,5.24
2023-03-06T16:06:48.140Z,5.19
2023-03-06T16:09:20.270Z,5.11
2023-03-06T16:11:49.720Z,5.04
2023-03-06T16:14:21.190Z,4.96
2023-03-06T16:16:48.347Z,4.88
2023-03-06T16:19:27.749Z,4.71
2023-03-06T16:21:55.025Z,4.67
2023-03-06T16:24:32.201Z,4.58
2023-03-06T16:27:03.112Z,4.43
2023-03-06T16:29:30.116Z,4.29
2023-03-06T16:31:59.623Z,4.24
2023-03-06T16:34:28.296Z,4.17
2023-03-06T16:36:58.153Z,4.12
2023-03-06T16:39:26.685Z,4.14
2023-03-06T16:41:55.592Z,4.05
2023-03-06T16:44:22.156Z,3.91
2023-03-06T16:46:51.610Z,3.86
2023-03-06T16:49:19.872Z,3.78
2023-03-06T16:51:47.357Z,3.68
2023-03-06T16:54:16.566Z,3.69
2023-03-06T16:56:46.651Z,3.63
2023-03-06T16:59:16.513Z,3.58
2023-03-06T17:01:43.444Z,3.48
2023-03-06T17:04:14.679Z,3.48
2023-03-06T17:06:44.048Z,3.51
2023-03-06T17:09:14.437Z,3.52
2023-03-06T17:11:43.118Z,3.50
2023-03-06T17:14:09.772Z,3.46
2023-03-06T17:16:42.485Z,3.47
2023-03-06T17:19:11.318Z,3.39
2023-03-06T17:21:46.783Z,3.31
2023-03-06T17:24:15.555Z,3.28
2023-03-06T17:26:43.335Z,3.27
2023-03-06T17:29:12.042Z,3.27
2023-03-06T17:31:38.733Z,3.24
2023-03-06T17:34:10.947Z,3.23
2023-03-06T17:36:42.080Z,3.22
2023-03-06T17:39:08.593Z,3.17
2023-03-06T17:41:36.508Z,3.21
2023-03-06T17:44:03.124Z,3.19
2023-03-06T17:46:31.844Z,3.16
2023-03-06T17:49:00.718Z,3.16
2023-03-06T17:51:27.230Z,3.11
2023-03-06T17:53:54.013Z,3.03
2023-03-06T17:56:25.664Z,2.96
2023-03-06T17:58:54.586Z,2.81
2023-03-06T18:01:23.029Z,2.61
2023-03-06T18:03:50.510Z,2.51
2023-03-06T18:06:25.363Z,2.53
2023-03-06T18:08:53.050Z,2.62
2023-03-06T18:11:23.120Z,2.63
2023-03-06T18:13:53.001Z,2.54
2023-03-06T18:16:26.268Z,2.51
2023-03-06T18:18:58.146Z,2.52
2023-03-06T18:21:25.174Z,2.43
2023-03-06T18:23:55.119Z,2.09
2023-03-06T18:26:24.569Z,1.71
2023-03-06T18:29:00.650Z,1.41
2023-03-06T18:31:32.336Z,1.53
2023-03-06T18:34:08.996Z,1.52
2023-03-06T18:36:36.998Z,1.53
2023-03-06T18:39:10.173Z,1.39
2023-03-06T18:41:37.317Z,1.40
2023-03-06T18:44:04.720Z,1.31
2023-03-06T18:46:36.771Z,1.44
2023-03-06T18:49:06.500Z,1.38
2023-03-06T18:51:33.916Z,1.46
2023-03-06T18:54:02.084Z,1.41
2023-03-06T18:56:31.221Z,1.35
2023-03-06T18:59:02.744Z,1.30
2023-03-06T19:01:36.479Z,1.31
2023-03-06T19:04:04.522Z,1.33
2023-03-06T19:06:34.497Z,1.21
2023-03-06T19:09:02.437Z,1.14
2023-03-06T19:11:30.071Z,1.11
2023-03-06T19:14:00.201Z,1.01
2023-03-06T19:16:33.210Z,0.95
2023-03-06T19:18:59.975Z,0.91
2023-03-06T19:21:29.861Z,0.90
2023-03-06T19:23:57.417Z,0.85
2023-03-06T19:26:27.164Z,0.86
2023-03-06T19:29:00.929Z,0.81
2023-03-06T19:31:32.520Z,0.78
2023-03-06T19:34:02.349Z,0.69
2023-03-06T19:36:33.697Z,0.65
2023-03-06T19:39:05.386Z,0.50
2023-03-06T19:41:36.415Z,0.53
2023-03-06T19:44:05.023Z,0.41
2023-03-06T19:46:32.241Z,0.41
2023-03-06T19:49:05.278Z,0.35
2023-03-06T19:51:37.204Z,0.36
2023-03-06T19:54:04.972Z,0.32
2023-03-06T19:56:35.982Z,0.41
2023-03-06T19:59:02.700Z,0.46
2023-03-06T20:01:29.398Z,0.47
2023-03-06T20:03:59.163Z,0.43
2023-03-06T20:06:29.921Z,0.44
2023-03-06T20:09:00.348Z,0.42
2023-03-06T20:11:31.983Z,0.35
2023-03-06T20:14:06.600Z,0.32
2023-03-06T20:16:37.329Z,0.43
2023-03-06T20:19:10.696Z,0.37
2023-03-06T20:21:40.639Z,0.35
2023-03-06T20:24:11.289Z,0.46
2023-03-06T20:26:40.172Z,0.46
2023-03-06T20:29:06.863Z,0.30
2023-03-06T20:31:37.757Z,0.19
2023-03-06T20:34:05.038Z,0.23
2023-03-06T20:36:37.226Z,0.28
2023-03-06T20:39:06.738Z,0.32
2023-03-06T20:41:36.320Z,0.29
2023-03-06T20:44:04.531Z,0.21
2023-03-06T20:46:31.714Z,0.32
2023-03-06T20:49:00.285Z,0.20
2023-03-06T20:51:31.518Z,0.21
2023-03-06T20:54:01.032Z,0.22
2023-03-06T20:56:30.627Z,0.30
2023-03-06T20:58:57.867Z,0.35
2023-03-06T21:01:33.801Z,0.50
2023-03-06T21:04:07.119Z,0.45
2023-03-06T21:06:37.283Z,0.35
2023-03-06T21:09:07.460Z,0.29
2023-03-06T21:11:36.756Z,0.34
2023-03-06T21:14:03.421Z,0.36
2023-03-06T21:16:30.507Z,0.31
2023-03-06T21:19:00.393Z,0.44
2023-03-06T21:21:30.783Z,0.39
2023-03-06T21:23:59.007Z,0.38
2023-03-06T21:26:28.687Z,0.34
2023-03-06T21:29:03.007Z,0.39
2023-03-06T21:31:36.859Z,0.45
2023-03-06T21:34:05.243Z,0.50
2023-03-06T21:36:32.181Z,0.52
2023-03-06T21:38:58.891Z,0.44
2023-03-06T21:41:30.684Z,0.43
2023-03-06T21:43:59.664Z,0.38
2023-03-06T21:46:27.837Z,0.33
2023-03-06T21:48:54.632Z,0.36
2023-03-06T21:51:23.771Z,0.38
2023-03-06T21:53:53.500Z,0.49
2023-03-06T21:56:29.904Z,0.45
2023-03-06T21:58:59.769Z,0.37
2023-03-06T22:01:28.750Z,0.42
2023-03-06T22:03:55.807Z,0.39
2023-03-06T22:06:25.495Z,0.38
2023-03-06T22:08:52.939Z,0.32
2023-03-06T22:11:23.280Z,0.37
2023-03-06T22:13:53.592Z,0.27
2023-03-06T22:16:23.854Z,0.30
2023-03-06T22:18:52.057Z,0.20
2023-03-06T22:21:21.897Z,0.24
2023-03-06T22:23:52.238Z,0.18
2023-03-06T22:26:19.696Z,0.21
2023-03-06T22:28:46.931Z,0.21
2023-03-06T22:31:18.212Z,0.24
2023-03-06T22:33:47.604Z,0.23
2023-03-06T22:36:15.817Z,0.32
2023-03-06T22:38:45.174Z,0.30
2023-03-06T22:41:16.523Z,0.36
2023-03-06T22:43:43.773Z,0.39
2023-03-06T22:46:15.357Z,0.50
2023-03-06T22:48:42.997Z,0.51
2023-03-06T22:51:15.552Z,0.52
2023-03-06T22:53:43.154Z,0.54
2023-03-06T22:56:12.317Z,0.60
2023-03-06T22:58:41.522Z,0.59
2023-03-06T23:01:10.822Z,0.51
2023-03-06T23:03:38.751Z,0.56
2023-03-06T23:06:14.530Z,0.64
2023-03-06T23:08:43.156Z,0.66
2023-03-06T23:11:12.553Z,0.69
2023-03-06T23:13:39.629Z,0.70
2023-03-06T23:16:07.605Z,0.69
2023-03-06T23:18:39.650Z,0.68
2023-03-06T23:21:09.116Z,0.73
2023-03-06T23:23:37.012Z,0.71
2023-03-06T23:26:10.537Z,0.71
2023-03-06T23:28:40.386Z,0.71
2023-03-06T23:31:08.255Z,0.71
2023-03-06T23:33:35.274Z,0.69
2023-03-06T23:36:08.632Z,0.70
2023-03-06T23:38:38.382Z,0.70
2023-03-06T23:41:11.633Z,0.70
2023-03-06T23:43:38.578Z,0.74
2023-03-06T23:46:07.095Z,0.76
2023-03-06T23:48:37.281Z,0.65
2023-03-06T23:51:11.865Z,0.71
2023-03-06T23:53:38.532Z,0.71
2023-03-06T23:56:11.166Z,0.68
2023-03-06T23:58:42.186Z,0.76
